sensor_id;sensor_type;location;lat;lon;timestamp;temperature;humidity
21275;DHT22;36472;52.170;20.884;2023-04-07T00:00:46;23.20;46.80
21275;DHT22;36472;52.170;20.884;2023-04-07T00:03:20;23.20;46.80
21275;DHT22;36472;52.170;20.884;2023-04-07T00:05:50;23.20;46.90
21275;DHT22;36472;52.170;20.884;2023-04-07T00:08:19;23.20;47.00
21275;DHT22;36472;52.170;20.884;2023-04-07T00:10:48;23.20;46.90
21275;DHT22;36472;52.170;20.884;2023-04-07T00:13:17;23.20;46.70
21275;DHT22;36472;52.170;20.884;2023-04-07T00:15:46;23.20;46.70
21275;DHT22;36472;52.170;20.884;2023-04-07T00:18:15;23.20;46.70
21275;DHT22;36472;52.170;20.884;2023-04-07T00:20:45;23.20;46.80
21275;DHT22;36472;52.170;20.884;2023-04-07T00:23:14;23.20;47.20
21275;DHT22;36472;52.170;20.884;2023-04-07T00:25:43;23.20;47.10
21275;DHT22;36472;52.170;20.884;2023-04-07T00:28:13;23.20;47.20
21275;DHT22;36472;52.170;20.884;2023-04-07T00:30:41;23.30;47.30
21275;DHT22;36472;52.170;20.884;2023-04-07T00:33:10;23.30;47.10
21275;DHT22;36472;52.170;20.884;2023-04-07T00:35:39;23.40;48.80
21275;DHT22;36472;52.170;20.884;2023-04-07T00:38:10;23.30;48.00
21275;DHT22;36472;52.170;20.884;2023-04-07T00:40:39;23.40;47.70
21275;DHT22;36472;52.170;20.884;2023-04-07T00:43:08;23.40;47.30
21275;DHT22;36472;52.170;20.884;2023-04-07T00:45:37;23.40;47.40
21275;DHT22;36472;52.170;20.884;2023-04-07T00:48:06;23.40;47.30
21275;DHT22;36472;52.170;20.884;2023-04-07T00:50:35;23.40;47.60
21275;DHT22;36472;52.170;20.884;2023-04-07T00:53:04;23.50;47.70
21275;DHT22;36472;52.170;20.884;2023-04-07T00:55:35;23.50;47.60
21275;DHT22;36472;52.170;20.884;2023-04-07T00:58:05;23.50;47.60
21275;DHT22;36472;52.170;20.884;2023-04-07T01:00:37;23.50;47.80
21275;DHT22;36472;52.170;20.884;2023-04-07T01:03:16;23.50;47.80
21275;DHT22;36472;52.170;20.884;2023-04-07T01:05:53;23.50;47.60
21275;DHT22;36472;52.170;20.884;2023-04-07T01:08:32;23.60;47.50
21275;DHT22;36472;52.170;20.884;2023-04-07T01:11:16;23.60;47.40
21275;DHT22;36472;52.170;20.884;2023-04-07T01:13:53;23.60;47.30
21275;DHT22;36472;52.170;20.884;2023-04-07T01:16:47;23.70;47.50
21275;DHT22;36472;52.170;20.884;2023-04-07T01:19:32;23.70;47.50
21275;DHT22;36472;52.170;20.884;2023-04-07T01:22:10;23.70;47.40
21275;DHT22;36472;52.170;20.884;2023-04-07T01:24:56;23.70;47.40
21275;DHT22;36472;52.170;20.884;2023-04-07T01:27:55;23.80;47.40
21275;DHT22;36472;52.170;20.884;2023-04-07T01:30:39;23.80;47.30
21275;DHT22;36472;52.170;20.884;2023-04-07T01:33:11;23.80;47.40
21275;DHT22;36472;52.170;20.884;2023-04-07T01:35:42;23.80;47.50
21275;DHT22;36472;52.170;20.884;2023-04-07T01:38:14;23.90;47.40
21275;DHT22;36472;52.170;20.884;2023-04-07T01:40:46;23.80;47.50
21275;DHT22;36472;52.170;20.884;2023-04-07T01:43:17;23.90;47.50
21275;DHT22;36472;52.170;20.884;2023-04-07T01:45:49;23.90;47.60
21275;DHT22;36472;52.170;20.884;2023-04-07T01:48:19;23.90;47.40
21275;DHT22;36472;52.170;20.884;2023-04-07T01:50:49;23.90;47.50
21275;DHT22;36472;52.170;20.884;2023-04-07T01:53:19;23.90;47.50
21275;DHT22;36472;52.170;20.884;2023-04-07T01:55:49;23.90;47.60
21275;DHT22;36472;52.170;20.884;2023-04-07T01:58:20;23.90;47.60
21275;DHT22;36472;52.170;20.884;2023-04-07T02:00:51;23.90;47.60
21275;DHT22;36472;52.170;20.884;2023-04-07T02:03:28;23.90;47.60
21275;DHT22;36472;52.170;20.884;2023-04-07T02:06:05;24.00;47.80
21275;DHT22;36472;52.170;20.884;2023-04-07T02:08:35;24.00;47.80
21275;DHT22;36472;52.170;20.884;2023-04-07T02:11:10;24.00;47.80
21275;DHT22;36472;52.170;20.884;2023-04-07T02:13:41;24.00;47.70
21275;DHT22;36472;52.170;20.884;2023-04-07T02:16:16;24.00;47.60
21275;DHT22;36472;52.170;20.884;2023-04-07T02:18:45;24.10;47.80
21275;DHT22;36472;52.170;20.884;2023-04-07T02:21:16;24.10;47.70
21275;DHT22;36472;52.170;20.884;2023-04-07T02:23:46;24.10;47.70
21275;DHT22;36472;52.170;20.884;2023-04-07T02:26:15;24.10;47.70
21275;DHT22;36472;52.170;20.884;2023-04-07T02:28:44;24.10;47.60
21275;DHT22;36472;52.170;20.884;2023-04-07T02:31:14;24.10;47.80
21275;DHT22;36472;52.170;20.884;2023-04-07T02:33:43;24.10;47.70
21275;DHT22;36472;52.170;20.884;2023-04-07T02:36:12;24.20;47.60
21275;DHT22;36472;52.170;20.884;2023-04-07T02:38:41;24.20;47.70
21275;DHT22;36472;52.170;20.884;2023-04-07T02:41:10;24.20;47.70
21275;DHT22;36472;52.170;20.884;2023-04-07T02:43:39;24.20;47.90
21275;DHT22;36472;52.170;20.884;2023-04-07T02:46:09;24.30;47.80
21275;DHT22;36472;52.170;20.884;2023-04-07T02:48:39;24.30;47.70
21275;DHT22;36472;52.170;20.884;2023-04-07T02:51:09;24.30;47.70
21275;DHT22;36472;52.170;20.884;2023-04-07T02:53:38;24.30;47.70
21275;DHT22;36472;52.170;20.884;2023-04-07T02:56:07;24.30;47.80
21275;DHT22;36472;52.170;20.884;2023-04-07T02:58:36;24.30;47.90
21275;DHT22;36472;52.170;20.884;2023-04-07T03:01:06;24.30;47.80
21275;DHT22;36472;52.170;20.884;2023-04-07T03:03:35;24.30;47.80
21275;DHT22;36472;52.170;20.884;2023-04-07T03:06:21;24.40;47.80
21275;DHT22;36472;52.170;20.884;2023-04-07T03:09:00;24.30;47.70
21275;DHT22;36472;52.170;20.884;2023-04-07T03:11:29;24.30;47.90
21275;DHT22;36472;52.170;20.884;2023-04-07T03:13:59;24.30;47.90
21275;DHT22;36472;52.170;20.884;2023-04-07T03:16:31;24.40;47.90
21275;DHT22;36472;52.170;20.884;2023-04-07T03:19:05;24.40;47.90
21275;DHT22;36472;52.170;20.884;2023-04-07T03:21:40;24.40;47.90
21275;DHT22;36472;52.170;20.884;2023-04-07T03:24:09;24.40;48.00
21275;DHT22;36472;52.170;20.884;2023-04-07T03:26:38;24.40;47.80
21275;DHT22;36472;52.170;20.884;2023-04-07T03:29:16;24.40;48.10
21275;DHT22;36472;52.170;20.884;2023-04-07T03:31:46;24.40;47.70
21275;DHT22;36472;52.170;20.884;2023-04-07T03:34:19;24.40;47.90
21275;DHT22;36472;52.170;20.884;2023-04-07T03:36:50;24.40;47.90
21275;DHT22;36472;52.170;20.884;2023-04-07T03:39:19;24.40;48.00
21275;DHT22;36472;52.170;20.884;2023-04-07T03:41:49;24.40;47.90
21275;DHT22;36472;52.170;20.884;2023-04-07T03:44:19;24.50;47.90
21275;DHT22;36472;52.170;20.884;2023-04-07T03:46:48;24.50;48.00
21275;DHT22;36472;52.170;20.884;2023-04-07T03:49:18;24.50;47.90
21275;DHT22;36472;52.170;20.884;2023-04-07T03:51:50;24.50;48.00
21275;DHT22;36472;52.170;20.884;2023-04-07T03:54:19;24.60;47.90
21275;DHT22;36472;52.170;20.884;2023-04-07T03:56:49;24.60;47.80
21275;DHT22;36472;52.170;20.884;2023-04-07T03:59:22;24.60;48.00
21275;DHT22;36472;52.170;20.884;2023-04-07T04:02:01;24.60;47.80
21275;DHT22;36472;52.170;20.884;2023-04-07T04:04:31;24.60;48.00
21275;DHT22;36472;52.170;20.884;2023-04-07T04:07:02;24.70;48.00
21275;DHT22;36472;52.170;20.884;2023-04-07T04:09:39;24.70;47.70
21275;DHT22;36472;52.170;20.884;2023-04-07T04:12:08;24.70;48.00
21275;DHT22;36472;52.170;20.884;2023-04-07T04:14:44;24.70;48.70
21275;DHT22;36472;52.170;20.884;2023-04-07T04:17:14;24.70;48.00
21275;DHT22;36472;52.170;20.884;2023-04-07T04:19:45;24.70;47.90
21275;DHT22;36472;52.170;20.884;2023-04-07T04:22:27;24.70;47.90
21275;DHT22;36472;52.170;20.884;2023-04-07T04:24:58;24.70;48.00
21275;DHT22;36472;52.170;20.884;2023-04-07T04:27:28;24.70;48.20
21275;DHT22;36472;52.170;20.884;2023-04-07T04:30:04;24.70;48.20
21275;DHT22;36472;52.170;20.884;2023-04-07T04:32:44;24.70;48.20
21275;DHT22;36472;52.170;20.884;2023-04-07T04:35:14;24.70;48.40
21275;DHT22;36472;52.170;20.884;2023-04-07T04:37:55;24.70;48.40
21275;DHT22;36472;52.170;20.884;2023-04-07T04:40:25;24.70;48.40
21275;DHT22;36472;52.170;20.884;2023-04-07T04:42:54;24.70;48.40
21275;DHT22;36472;52.170;20.884;2023-04-07T04:45:24;24.80;48.30
21275;DHT22;36472;52.170;20.884;2023-04-07T04:47:53;24.80;48.40
21275;DHT22;36472;52.170;20.884;2023-04-07T04:50:22;24.80;48.10
21275;DHT22;36472;52.170;20.884;2023-04-07T04:52:52;24.80;48.30
21275;DHT22;36472;52.170;20.884;2023-04-07T04:55:24;24.80;48.20
21275;DHT22;36472;52.170;20.884;2023-04-07T04:57:54;24.90;48.10
21275;DHT22;36472;52.170;20.884;2023-04-07T05:00:33;24.90;48.10
21275;DHT22;36472;52.170;20.884;2023-04-07T05:03:06;24.90;48.10
21275;DHT22;36472;52.170;20.884;2023-04-07T05:05:38;24.90;48.10
21275;DHT22;36472;52.170;20.884;2023-04-07T05:08:10;24.90;48.10
21275;DHT22;36472;52.170;20.884;2023-04-07T05:10:41;24.90;48.40
21275;DHT22;36472;52.170;20.884;2023-04-07T05:13:14;24.90;48.40
21275;DHT22;36472;52.170;20.884;2023-04-07T05:15:43;24.90;48.30
21275;DHT22;36472;52.170;20.884;2023-04-07T05:18:13;24.90;52.20
21275;DHT22;36472;52.170;20.884;2023-04-07T05:20:43;24.90;50.00
21275;DHT22;36472;52.170;20.884;2023-04-07T05:23:12;24.90;50.00
21275;DHT22;36472;52.170;20.884;2023-04-07T05:25:44;24.80;50.20
21275;DHT22;36472;52.170;20.884;2023-04-07T05:28:13;24.90;50.00
21275;DHT22;36472;52.170;20.884;2023-04-07T05:30:42;24.90;50.00
21275;DHT22;36472;52.170;20.884;2023-04-07T05:33:12;24.90;49.60
21275;DHT22;36472;52.170;20.884;2023-04-07T05:35:47;24.90;49.70
21275;DHT22;36472;52.170;20.884;2023-04-07T05:38:16;25.00;49.20
21275;DHT22;36472;52.170;20.884;2023-04-07T05:40:46;25.00;49.40
21275;DHT22;36472;52.170;20.884;2023-04-07T05:43:26;24.90;49.10
21275;DHT22;36472;52.170;20.884;2023-04-07T05:45:56;25.00;49.00
21275;DHT22;36472;52.170;20.884;2023-04-07T05:48:25;25.00;49.20
21275;DHT22;36472;52.170;20.884;2023-04-07T05:50:55;25.00;49.00
21275;DHT22;36472;52.170;20.884;2023-04-07T05:53:24;25.00;48.90
21275;DHT22;36472;52.170;20.884;2023-04-07T05:55:55;25.00;48.60
21275;DHT22;36472;52.170;20.884;2023-04-07T05:58:38;25.00;48.90
21275;DHT22;36472;52.170;20.884;2023-04-07T06:01:08;25.00;48.70
21275;DHT22;36472;52.170;20.884;2023-04-07T06:03:38;25.00;48.80
21275;DHT22;36472;52.170;20.884;2023-04-07T06:06:28;25.00;49.20
21275;DHT22;36472;52.170;20.884;2023-04-07T06:08:57;25.10;49.10
21275;DHT22;36472;52.170;20.884;2023-04-07T06:11:28;25.10;49.20
21275;DHT22;36472;52.170;20.884;2023-04-07T06:13:58;25.10;49.00
21275;DHT22;36472;52.170;20.884;2023-04-07T06:16:27;25.20;49.10
21275;DHT22;36472;52.170;20.884;2023-04-07T06:18:57;25.20;49.30
21275;DHT22;36472;52.170;20.884;2023-04-07T06:21:28;25.20;49.30
21275;DHT22;36472;52.170;20.884;2023-04-07T06:23:58;25.20;49.20
21275;DHT22;36472;52.170;20.884;2023-04-07T06:26:28;25.20;49.00
21275;DHT22;36472;52.170;20.884;2023-04-07T06:28:58;25.20;49.20
21275;DHT22;36472;52.170;20.884;2023-04-07T06:31:27;25.20;49.10
21275;DHT22;36472;52.170;20.884;2023-04-07T06:33:56;25.20;49.10
21275;DHT22;36472;52.170;20.884;2023-04-07T06:36:26;25.30;49.40
21275;DHT22;36472;52.170;20.884;2023-04-07T06:38:55;25.30;49.90
21275;DHT22;36472;52.170;20.884;2023-04-07T06:41:24;25.30;49.50
21275;DHT22;36472;52.170;20.884;2023-04-07T06:43:55;25.30;49.00
21275;DHT22;36472;52.170;20.884;2023-04-07T06:46:23;25.40;49.20
21275;DHT22;36472;52.170;20.884;2023-04-07T06:48:53;25.30;49.00
21275;DHT22;36472;52.170;20.884;2023-04-07T06:51:22;25.40;49.10
21275;DHT22;36472;52.170;20.884;2023-04-07T06:53:51;25.40;48.90
21275;DHT22;36472;52.170;20.884;2023-04-07T06:56:22;25.40;48.80
21275;DHT22;36472;52.170;20.884;2023-04-07T06:58:51;25.40;49.10
21275;DHT22;36472;52.170;20.884;2023-04-07T07:01:21;25.40;49.30
21275;DHT22;36472;52.170;20.884;2023-04-07T07:03:50;25.40;49.20
21275;DHT22;36472;52.170;20.884;2023-04-07T07:06:20;25.50;49.20
21275;DHT22;36472;52.170;20.884;2023-04-07T07:08:49;25.50;49.30
21275;DHT22;36472;52.170;20.884;2023-04-07T07:11:18;25.50;49.30
21275;DHT22;36472;52.170;20.884;2023-04-07T07:13:47;25.50;49.30
21275;DHT22;36472;52.170;20.884;2023-04-07T07:16:16;25.50;49.60
21275;DHT22;36472;52.170;20.884;2023-04-07T07:18:47;25.60;49.70
21275;DHT22;36472;52.170;20.884;2023-04-07T07:21:16;25.60;49.80
21275;DHT22;36472;52.170;20.884;2023-04-07T07:23:46;25.70;50.40
21275;DHT22;36472;52.170;20.884;2023-04-07T07:26:15;25.80;49.80
21275;DHT22;36472;52.170;20.884;2023-04-07T07:28:44;25.80;49.70
21275;DHT22;36472;52.170;20.884;2023-04-07T07:31:14;25.90;49.60
21275;DHT22;36472;52.170;20.884;2023-04-07T07:33:43;25.90;49.60
21275;DHT22;36472;52.170;20.884;2023-04-07T07:36:17;26.00;49.30
21275;DHT22;36472;52.170;20.884;2023-04-07T07:38:48;26.00;49.10
21275;DHT22;36472;52.170;20.884;2023-04-07T07:41:17;26.00;49.20
21275;DHT22;36472;52.170;20.884;2023-04-07T07:43:47;26.10;49.20
21275;DHT22;36472;52.170;20.884;2023-04-07T07:46:16;26.10;49.00
21275;DHT22;36472;52.170;20.884;2023-04-07T07:48:45;26.10;49.20
21275;DHT22;36472;52.170;20.884;2023-04-07T07:51:16;26.10;49.30
21275;DHT22;36472;52.170;20.884;2023-04-07T07:53:45;26.10;49.00
21275;DHT22;36472;52.170;20.884;2023-04-07T07:56:14;26.20;49.20
21275;DHT22;36472;52.170;20.884;2023-04-07T07:58:44;26.20;49.30
21275;DHT22;36472;52.170;20.884;2023-04-07T08:01:12;26.20;49.50
21275;DHT22;36472;52.170;20.884;2023-04-07T08:03:42;26.20;49.50
21275;DHT22;36472;52.170;20.884;2023-04-07T08:06:12;26.20;49.60
21275;DHT22;36472;52.170;20.884;2023-04-07T08:08:42;26.30;49.50
21275;DHT22;36472;52.170;20.884;2023-04-07T08:11:11;26.30;49.50
21275;DHT22;36472;52.170;20.884;2023-04-07T08:13:40;26.30;49.70
21275;DHT22;36472;52.170;20.884;2023-04-07T08:16:12;26.40;49.60
21275;DHT22;36472;52.170;20.884;2023-04-07T08:18:41;26.40;49.60
21275;DHT22;36472;52.170;20.884;2023-04-07T08:21:10;26.40;49.40
21275;DHT22;36472;52.170;20.884;2023-04-07T08:23:39;26.50;49.70
21275;DHT22;36472;52.170;20.884;2023-04-07T08:26:09;26.50;49.70
21275;DHT22;36472;52.170;20.884;2023-04-07T08:28:38;26.60;49.60
21275;DHT22;36472;52.170;20.884;2023-04-07T08:31:07;26.60;49.90
21275;DHT22;36472;52.170;20.884;2023-04-07T08:33:36;26.60;50.30
21275;DHT22;36472;52.170;20.884;2023-04-07T08:36:06;26.70;50.00
21275;DHT22;36472;52.170;20.884;2023-04-07T08:38:35;26.70;49.80
21275;DHT22;36472;52.170;20.884;2023-04-07T08:41:07;26.70;49.80
21275;DHT22;36472;52.170;20.884;2023-04-07T08:43:41;26.80;49.60
21275;DHT22;36472;52.170;20.884;2023-04-07T08:46:13;26.80;49.70
21275;DHT22;36472;52.170;20.884;2023-04-07T08:48:50;26.90;49.60
21275;DHT22;36472;52.170;20.884;2023-04-07T08:51:26;26.90;49.20
21275;DHT22;36472;52.170;20.884;2023-04-07T08:54:03;26.90;49.40
21275;DHT22;36472;52.170;20.884;2023-04-07T08:56:38;26.90;49.40
21275;DHT22;36472;52.170;20.884;2023-04-07T08:59:11;26.90;49.70
21275;DHT22;36472;52.170;20.884;2023-04-07T09:01:41;27.00;49.30
21275;DHT22;36472;52.170;20.884;2023-04-07T09:04:11;26.90;49.40
21275;DHT22;36472;52.170;20.884;2023-04-07T09:06:41;27.00;49.50
21275;DHT22;36472;52.170;20.884;2023-04-07T09:09:11;27.00;49.90
21275;DHT22;36472;52.170;20.884;2023-04-07T09:11:43;27.00;49.70
21275;DHT22;36472;52.170;20.884;2023-04-07T09:14:12;27.10;50.00
21275;DHT22;36472;52.170;20.884;2023-04-07T09:16:41;27.10;49.80
21275;DHT22;36472;52.170;20.884;2023-04-07T09:19:11;27.10;49.90
21275;DHT22;36472;52.170;20.884;2023-04-07T09:21:50;27.00;49.70
21275;DHT22;36472;52.170;20.884;2023-04-07T09:24:21;27.10;49.50
21275;DHT22;36472;52.170;20.884;2023-04-07T09:27:08;27.10;49.60
21275;DHT22;36472;52.170;20.884;2023-04-07T09:29:40;27.10;49.80
21275;DHT22;36472;52.170;20.884;2023-04-07T09:32:10;27.10;50.10
21275;DHT22;36472;52.170;20.884;2023-04-07T09:34:40;27.20;49.80
21275;DHT22;36472;52.170;20.884;2023-04-07T09:37:21;27.20;49.30
21275;DHT22;36472;52.170;20.884;2023-04-07T09:39:51;27.20;49.40
21275;DHT22;36472;52.170;20.884;2023-04-07T09:42:22;27.20;49.70
21275;DHT22;36472;52.170;20.884;2023-04-07T09:44:53;27.30;49.80
21275;DHT22;36472;52.170;20.884;2023-04-07T09:47:25;27.30;49.70
21275;DHT22;36472;52.170;20.884;2023-04-07T09:49:56;27.20;49.80
21275;DHT22;36472;52.170;20.884;2023-04-07T09:52:49;27.30;49.30
21275;DHT22;36472;52.170;20.884;2023-04-07T09:55:20;27.30;49.50
21275;DHT22;36472;52.170;20.884;2023-04-07T09:57:52;27.30;49.90
21275;DHT22;36472;52.170;20.884;2023-04-07T10:00:23;27.30;49.40
21275;DHT22;36472;52.170;20.884;2023-04-07T10:02:53;27.30;49.60
21275;DHT22;36472;52.170;20.884;2023-04-07T10:05:23;27.40;50.00
21275;DHT22;36472;52.170;20.884;2023-04-07T10:07:52;27.40;49.40
21275;DHT22;36472;52.170;20.884;2023-04-07T10:10:23;27.40;49.80
21275;DHT22;36472;52.170;20.884;2023-04-07T10:12:55;27.40;49.90
21275;DHT22;36472;52.170;20.884;2023-04-07T10:15:25;27.40;50.10
21275;DHT22;36472;52.170;20.884;2023-04-07T10:17:54;27.40;49.90
21275;DHT22;36472;52.170;20.884;2023-04-07T10:20:25;27.40;50.40
21275;DHT22;36472;52.170;20.884;2023-04-07T10:23:01;27.50;50.40
21275;DHT22;36472;52.170;20.884;2023-04-07T10:25:38;27.50;50.00
21275;DHT22;36472;52.170;20.884;2023-04-07T10:28:11;27.50;50.00
21275;DHT22;36472;52.170;20.884;2023-04-07T10:30:42;27.60;49.70
21275;DHT22;36472;52.170;20.884;2023-04-07T10:33:11;27.60;50.00
21275;DHT22;36472;52.170;20.884;2023-04-07T10:36:03;27.60;50.50
21275;DHT22;36472;52.170;20.884;2023-04-07T10:38:33;27.60;49.10
21275;DHT22;36472;52.170;20.884;2023-04-07T10:44:38;27.60;50.10
21275;DHT22;36472;52.170;20.884;2023-04-07T10:47:19;27.70;50.30
21275;DHT22;36472;52.170;20.884;2023-04-07T10:50:16;27.70;50.40
21275;DHT22;36472;52.170;20.884;2023-04-07T10:52:48;27.70;50.80
21275;DHT22;36472;52.170;20.884;2023-04-07T10:55:33;27.80;50.60
21275;DHT22;36472;52.170;20.884;2023-04-07T10:58:14;27.80;49.90
21275;DHT22;36472;52.170;20.884;2023-04-07T11:01:19;27.90;50.60
21275;DHT22;36472;52.170;20.884;2023-04-07T11:03:54;27.90;50.40
21275;DHT22;36472;52.170;20.884;2023-04-07T11:06:25;27.90;50.20
21275;DHT22;36472;52.170;20.884;2023-04-07T11:08:54;28.00;50.40
21275;DHT22;36472;52.170;20.884;2023-04-07T11:11:37;28.00;50.60
21275;DHT22;36472;52.170;20.884;2023-04-07T11:14:08;28.00;50.80
21275;DHT22;36472;52.170;20.884;2023-04-07T11:16:40;28.00;50.20
21275;DHT22;36472;52.170;20.884;2023-04-07T11:19:12;28.10;50.20
21275;DHT22;36472;52.170;20.884;2023-04-07T11:21:40;28.10;50.40
21275;DHT22;36472;52.170;20.884;2023-04-07T11:24:09;28.20;50.40
21275;DHT22;36472;52.170;20.884;2023-04-07T11:26:40;28.20;50.30
21275;DHT22;36472;52.170;20.884;2023-04-07T11:29:10;28.20;50.20
21275;DHT22;36472;52.170;20.884;2023-04-07T11:31:46;28.30;50.00
21275;DHT22;36472;52.170;20.884;2023-04-07T11:34:16;28.30;50.20
21275;DHT22;36472;52.170;20.884;2023-04-07T11:36:44;28.30;50.10
21275;DHT22;36472;52.170;20.884;2023-04-07T11:39:18;28.30;49.70
21275;DHT22;36472;52.170;20.884;2023-04-07T11:41:49;28.40;50.10
21275;DHT22;36472;52.170;20.884;2023-04-07T11:44:18;28.30;49.90
21275;DHT22;36472;52.170;20.884;2023-04-07T11:46:56;28.40;49.60
21275;DHT22;36472;52.170;20.884;2023-04-07T11:49:27;28.30;49.80
21275;DHT22;36472;52.170;20.884;2023-04-07T11:51:59;28.40;49.80
21275;DHT22;36472;52.170;20.884;2023-04-07T11:54:39;28.40;50.00
21275;DHT22;36472;52.170;20.884;2023-04-07T11:57:09;28.40;49.90
21275;DHT22;36472;52.170;20.884;2023-04-07T11:59:40;28.40;50.00
21275;DHT22;36472;52.170;20.884;2023-04-07T12:02:10;28.40;50.30
21275;DHT22;36472;52.170;20.884;2023-04-07T12:04:54;28.40;50.10
21275;DHT22;36472;52.170;20.884;2023-04-07T12:07:24;28.40;50.30
21275;DHT22;36472;52.170;20.884;2023-04-07T12:09:55;28.40;50.40
21275;DHT22;36472;52.170;20.884;2023-04-07T12:12:25;28.40;50.60
21275;DHT22;36472;52.170;20.884;2023-04-07T12:14:55;28.40;50.60
21275;DHT22;36472;52.170;20.884;2023-04-07T12:17:26;28.30;50.80
21275;DHT22;36472;52.170;20.884;2023-04-07T12:19:55;28.20;51.00
21275;DHT22;36472;52.170;20.884;2023-04-07T12:22:24;28.20;51.00
21275;DHT22;36472;52.170;20.884;2023-04-07T12:24:53;28.20;51.20
21275;DHT22;36472;52.170;20.884;2023-04-07T12:27:22;28.20;51.60
21275;DHT22;36472;52.170;20.884;2023-04-07T12:30:09;28.20;51.80
21275;DHT22;36472;52.170;20.884;2023-04-07T12:32:40;28.20;51.20
21275;DHT22;36472;52.170;20.884;2023-04-07T12:35:10;28.20;51.70
21275;DHT22;36472;52.170;20.884;2023-04-07T12:37:39;28.20;51.70
21275;DHT22;36472;52.170;20.884;2023-04-07T12:40:08;28.30;51.80
21275;DHT22;36472;52.170;20.884;2023-04-07T12:42:38;28.30;51.60
21275;DHT22;36472;52.170;20.884;2023-04-07T12:45:08;28.30;51.20
21275;DHT22;36472;52.170;20.884;2023-04-07T12:47:37;28.30;51.20
21275;DHT22;36472;52.170;20.884;2023-04-07T12:50:09;28.30;50.80
21275;DHT22;36472;52.170;20.884;2023-04-07T12:52:37;28.40;51.00
21275;DHT22;36472;52.170;20.884;2023-04-07T12:55:07;28.40;51.10
21275;DHT22;36472;52.170;20.884;2023-04-07T12:57:37;28.40;50.80
21275;DHT22;36472;52.170;20.884;2023-04-07T13:00:07;28.40;50.40
21275;DHT22;36472;52.170;20.884;2023-04-07T13:02:37;28.50;49.60
21275;DHT22;36472;52.170;20.884;2023-04-07T13:05:08;28.50;48.80
21275;DHT22;36472;52.170;20.884;2023-04-07T13:07:37;28.50;48.80
21275;DHT22;36472;52.170;20.884;2023-04-07T13:10:07;28.40;48.10
21275;DHT22;36472;52.170;20.884;2023-04-07T13:12:37;28.40;48.20
21275;DHT22;36472;52.170;20.884;2023-04-07T13:15:08;28.40;48.20
21275;DHT22;36472;52.170;20.884;2023-04-07T13:17:36;28.40;48.60
21275;DHT22;36472;52.170;20.884;2023-04-07T13:20:08;28.40;48.00
21275;DHT22;36472;52.170;20.884;2023-04-07T13:22:37;28.40;47.70
21275;DHT22;36472;52.170;20.884;2023-04-07T13:25:22;28.40;48.30
21275;DHT22;36472;52.170;20.884;2023-04-07T13:27:51;28.40;47.20
21275;DHT22;36472;52.170;20.884;2023-04-07T13:30:20;28.40;47.20
21275;DHT22;36472;52.170;20.884;2023-04-07T13:32:49;28.40;47.40
21275;DHT22;36472;52.170;20.884;2023-04-07T13:35:20;28.50;47.20
21275;DHT22;36472;52.170;20.884;2023-04-07T13:37:49;28.50;47.40
21275;DHT22;36472;52.170;20.884;2023-04-07T13:40:18;28.40;46.70
21275;DHT22;36472;52.170;20.884;2023-04-07T13:42:47;28.50;46.70
21275;DHT22;36472;52.170;20.884;2023-04-07T13:45:16;28.40;45.80
21275;DHT22;36472;52.170;20.884;2023-04-07T13:47:45;28.40;45.80
21275;DHT22;36472;52.170;20.884;2023-04-07T13:50:14;28.30;45.30
21275;DHT22;36472;52.170;20.884;2023-04-07T13:52:44;28.30;45.60
21275;DHT22;36472;52.170;20.884;2023-04-07T13:55:13;28.20;46.20
21275;DHT22;36472;52.170;20.884;2023-04-07T13:57:43;28.10;46.60
21275;DHT22;36472;52.170;20.884;2023-04-07T14:00:13;28.20;46.90
21275;DHT22;36472;52.170;20.884;2023-04-07T14:02:42;28.20;47.00
21275;DHT22;36472;52.170;20.884;2023-04-07T14:05:14;28.30;45.40
21275;DHT22;36472;52.170;20.884;2023-04-07T14:07:44;28.30;45.40
21275;DHT22;36472;52.170;20.884;2023-04-07T14:10:14;28.30;44.70
21275;DHT22;36472;52.170;20.884;2023-04-07T14:12:43;28.30;44.30
21275;DHT22;36472;52.170;20.884;2023-04-07T14:15:13;28.30;44.50
21275;DHT22;36472;52.170;20.884;2023-04-07T14:17:44;28.30;44.50
21275;DHT22;36472;52.170;20.884;2023-04-07T14:20:13;28.30;45.10
21275;DHT22;36472;52.170;20.884;2023-04-07T14:22:43;28.30;44.60
21275;DHT22;36472;52.170;20.884;2023-04-07T14:25:13;28.30;44.70
21275;DHT22;36472;52.170;20.884;2023-04-07T14:27:41;28.40;44.20
21275;DHT22;36472;52.170;20.884;2023-04-07T14:30:11;28.30;44.60
21275;DHT22;36472;52.170;20.884;2023-04-07T14:32:40;28.30;44.40
21275;DHT22;36472;52.170;20.884;2023-04-07T14:35:09;28.30;44.30
21275;DHT22;36472;52.170;20.884;2023-04-07T14:37:38;28.10;44.10
21275;DHT22;36472;52.170;20.884;2023-04-07T14:40:09;28.10;44.50
21275;DHT22;36472;52.170;20.884;2023-04-07T14:42:39;28.00;44.40
21275;DHT22;36472;52.170;20.884;2023-04-07T14:45:09;27.90;43.90
21275;DHT22;36472;52.170;20.884;2023-04-07T14:47:39;27.80;44.40
21275;DHT22;36472;52.170;20.884;2023-04-07T14:50:08;27.80;44.10
21275;DHT22;36472;52.170;20.884;2023-04-07T14:52:38;27.70;44.60
21275;DHT22;36472;52.170;20.884;2023-04-07T14:55:08;27.50;44.60
21275;DHT22;36472;52.170;20.884;2023-04-07T14:57:37;27.50;44.70
21275;DHT22;36472;52.170;20.884;2023-04-07T15:00:07;27.60;44.90
21275;DHT22;36472;52.170;20.884;2023-04-07T15:02:37;27.60;44.30
21275;DHT22;36472;52.170;20.884;2023-04-07T15:05:07;27.50;44.40
21275;DHT22;36472;52.170;20.884;2023-04-07T15:07:36;27.50;44.40
21275;DHT22;36472;52.170;20.884;2023-04-07T15:10:06;27.50;43.90
21275;DHT22;36472;52.170;20.884;2023-04-07T15:12:37;27.50;43.50
21275;DHT22;36472;52.170;20.884;2023-04-07T15:15:06;27.40;44.20
21275;DHT22;36472;52.170;20.884;2023-04-07T15:17:35;27.40;43.80
21275;DHT22;36472;52.170;20.884;2023-04-07T15:20:11;27.40;43.70
21275;DHT22;36472;52.170;20.884;2023-04-07T15:22:40;27.40;44.20
21275;DHT22;36472;52.170;20.884;2023-04-07T15:25:09;27.40;44.50
21275;DHT22;36472;52.170;20.884;2023-04-07T15:27:39;27.50;43.90
21275;DHT22;36472;52.170;20.884;2023-04-07T15:30:09;27.50;44.20
21275;DHT22;36472;52.170;20.884;2023-04-07T15:32:38;27.60;44.10
21275;DHT22;36472;52.170;20.884;2023-04-07T15:35:08;27.30;44.10
21275;DHT22;36472;52.170;20.884;2023-04-07T15:37:37;27.40;42.60
21275;DHT22;36472;52.170;20.884;2023-04-07T15:40:07;27.70;42.30
21275;DHT22;36472;52.170;20.884;2023-04-07T15:42:36;27.90;41.90
21275;DHT22;36472;52.170;20.884;2023-04-07T15:45:10;28.10;41.30